createdAt,value
2022-08-17T00:00:42.861Z,26.36
2022-08-17T00:05:55.091Z,26.49
2022-08-17T00:11:00.560Z,26.36
2022-08-17T00:16:09.327Z,26.43
2022-08-17T00:21:12.292Z,25.72
2022-08-17T00:26:16.685Z,26.26
2022-08-17T00:31:39.137Z,26.34
2022-08-17T00:36:41.614Z,26.21
2022-08-17T00:41:44.810Z,26.29
2022-08-17T00:46:48.445Z,26.21
2022-08-17T00:51:52.966Z,26.04
2022-08-17T00:57:09.449Z,25.79
2022-08-17T01:02:14.817Z,25.51
2022-08-17T01:07:18.411Z,25.40
2022-08-17T01:12:20.906Z,25.45
2022-08-17T01:17:23.444Z,25.38
2022-08-17T01:22:26.763Z,25.43
2022-08-17T01:27:30.997Z,25.54
2022-08-17T01:32:33.953Z,25.42
2022-08-17T01:37:40.131Z,25.51
2022-08-17T01:42:57.921Z,25.35
2022-08-17T01:48:01.320Z,25.44
2022-08-17T01:53:07.225Z,25.54
2022-08-17T01:58:10.401Z,25.54
2022-08-17T02:03:13.954Z,25.38
2022-08-17T02:08:19.809Z,25.51
2022-08-17T02:13:23.145Z,25.26
2022-08-17T02:18:26.351Z,25.30
2022-08-17T02:23:33.014Z,25.42
2022-08-17T02:28:35.952Z,25.07
2022-08-17T02:33:42.828Z,25.19
2022-08-17T02:38:46.088Z,25.05
2022-08-17T02:43:48.514Z,25.14
2022-08-17T02:48:50.937Z,25.01
2022-08-17T02:54:38.882Z,24.96
2022-08-17T02:59:16.050Z,25.09
2022-08-17T03:04:18.690Z,24.68
2022-08-17T03:09:21.192Z,25.03
2022-08-17T03:14:24.454Z,24.57
2022-08-17T03:19:28.780Z,24.90
2022-08-17T03:24:31.210Z,24.73
2022-08-17T03:29:33.587Z,24.46
2022-08-17T03:34:35.963Z,24.57
2022-08-17T03:39:38.763Z,24.47
2022-08-17T03:44:41.210Z,24.29
2022-08-17T03:50:01.959Z,24.11
2022-08-17T03:55:36.815Z,23.99
2022-08-17T04:00:45.973Z,24.11
2022-08-17T04:05:48.382Z,23.90
2022-08-17T04:10:51.022Z,24.22
2022-08-17T04:15:54.206Z,24.51
2022-08-17T04:20:56.720Z,24.60
2022-08-17T04:26:01.426Z,24.08
2022-08-17T04:31:05.160Z,24.44
2022-08-17T04:36:09.460Z,24.32
2022-08-17T04:41:31.931Z,24.55
2022-08-17T04:46:36.742Z,24.32
2022-08-17T04:51:56.318Z,24.60
2022-08-17T04:56:59.273Z,24.61
2022-08-17T05:02:01.700Z,24.71
2022-08-17T05:07:05.050Z,24.91
2022-08-17T05:12:07.764Z,25.07
2022-08-17T05:17:11.207Z,25.25
2022-08-17T05:22:15.258Z,25.14
2022-08-17T05:27:19.043Z,25.27
2022-08-17T05:32:39.285Z,25.56
2022-08-17T05:37:45.585Z,25.63
2022-08-17T05:42:49.887Z,25.76
2022-08-17T05:47:52.420Z,25.72
2022-08-17T05:53:11.957Z,25.93
2022-08-17T05:58:36.290Z,26.19
2022-08-17T06:03:47.450Z,26.35
2022-08-17T06:09:33.821Z,26.49
2022-08-17T06:14:45.478Z,26.71
2022-08-17T06:19:55.111Z,26.65
2022-08-17T06:25:10.163Z,26.70
2022-08-17T06:30:16.768Z,27.03
2022-08-17T06:35:49.417Z,27.20
2022-08-17T06:41:00.102Z,27.22
2022-08-17T06:46:14.074Z,27.30
2022-08-17T06:51:29.338Z,27.64
2022-08-17T06:57:01.192Z,27.71
2022-08-17T07:02:07.693Z,27.59
2022-08-17T07:07:30.456Z,27.62
2022-08-17T07:12:39.047Z,27.90
2022-08-17T07:17:47.217Z,27.90
2022-08-17T07:23:07.431Z,28.20
2022-08-17T07:28:09.835Z,28.33
2022-08-17T07:33:20.540Z,28.28
2022-08-17T07:38:28.282Z,28.24
2022-08-17T07:43:39.995Z,28.64
2022-08-17T07:48:45.489Z,28.78
2022-08-17T07:53:48.386Z,28.68
2022-08-17T07:59:12.633Z,28.99
2022-08-17T08:09:59.799Z,29.36
2022-08-17T08:15:19.378Z,29.40
2022-08-17T08:20:51.698Z,29.42
2022-08-17T08:26:09.767Z,29.70
2022-08-17T08:31:44.929Z,29.83
2022-08-17T08:37:17.793Z,30.00
2022-08-17T08:42:44.538Z,30.01
2022-08-17T08:48:46.220Z,29.99
2022-08-17T08:54:10.286Z,29.85
2022-08-17T08:59:30.705Z,30.35
2022-08-17T09:05:12.464Z,30.43
2022-08-17T09:10:17.923Z,30.66
2022-08-17T09:15:34.145Z,30.62
2022-08-17T09:20:49.930Z,30.89
2022-08-17T09:26:06.921Z,31.11
2022-08-17T09:31:19.652Z,31.17
2022-08-17T09:36:31.947Z,31.11
2022-08-17T09:41:39.128Z,31.45
2022-08-17T09:47:13.510Z,31.61
2022-08-17T09:52:25.651Z,31.56
2022-08-17T09:57:36.608Z,31.71
2022-08-17T10:02:41.041Z,31.81
2022-08-17T10:07:56.536Z,32.01
2022-08-17T10:13:33.520Z,32.44
2022-08-17T10:18:57.066Z,32.60
2022-08-17T10:25:21.386Z,32.69
2022-08-17T10:30:16.239Z,32.67
2022-08-17T10:35:43.221Z,32.68
2022-08-17T10:40:53.621Z,32.71
2022-08-17T10:46:30.009Z,32.95
2022-08-17T10:51:39.649Z,33.06
2022-08-17T10:56:53.147Z,32.63
2022-08-17T11:02:06.779Z,32.97
2022-08-17T11:07:18.524Z,33.11
2022-08-17T11:12:34.039Z,33.00
2022-08-17T11:17:52.745Z,33.49
2022-08-17T11:23:21.531Z,33.88
2022-08-17T11:28:28.807Z,33.96
2022-08-17T11:33:38.059Z,34.02
2022-08-17T11:38:54.511Z,34.14
2022-08-17T11:44:21.185Z,34.20
2022-08-17T11:50:09.123Z,33.96
2022-08-17T11:55:38.509Z,34.30
2022-08-17T12:00:49.983Z,34.43
2022-08-17T12:06:30.512Z,34.17
2022-08-17T12:11:58.683Z,34.31
2022-08-17T12:17:25.898Z,34.37
2022-08-17T12:23:01.579Z,34.90
2022-08-17T12:28:07.423Z,34.90
2022-08-17T12:33:25.467Z,34.97
2022-08-17T12:38:35.439Z,34.98
2022-08-17T12:43:37.902Z,35.16
2022-08-17T12:48:40.275Z,35.19
2022-08-17T12:54:03.044Z,35.46
2022-08-17T12:59:07.647Z,35.65
2022-08-17T13:04:14.707Z,35.83
2022-08-17T13:09:35.235Z,35.50
2022-08-17T13:14:48.491Z,35.00
2022-08-17T13:19:51.800Z,35.86
2022-08-17T13:25:01.374Z,35.86
2022-08-17T13:30:12.276Z,35.97
2022-08-17T13:35:39.832Z,36.45
2022-08-17T13:40:50.768Z,36.41
2022-08-17T13:45:54.096Z,36.74
2022-08-17T13:50:56.383Z,36.83
2022-08-17T13:56:37.104Z,36.87
2022-08-17T14:01:35.366Z,37.19
2022-08-17T14:07:01.854Z,37.45
2022-08-17T14:12:10.142Z,37.70
2022-08-17T14:17:13.275Z,37.78
2022-08-17T14:22:24.537Z,37.84
2022-08-17T14:27:28.764Z,38.09
2022-08-17T14:32:34.801Z,38.38
2022-08-17T14:37:38.133Z,38.51
2022-08-17T14:42:46.244Z,39.11
2022-08-17T14:47:49.092Z,39.17
2022-08-17T14:52:51.842Z,39.87
2022-08-17T14:57:54.240Z,40.35
2022-08-17T15:02:59.416Z,40.79
2022-08-17T15:08:02.952Z,41.17
2022-08-17T15:13:11.174Z,41.75
2022-08-17T15:18:13.578Z,42.15
2022-08-17T15:23:20.837Z,42.53
2022-08-17T15:28:23.695Z,42.66
2022-08-17T15:33:32.222Z,43.04
2022-08-17T15:38:39.908Z,43.61
2022-08-17T15:43:43.270Z,43.04
2022-08-17T15:48:51.183Z,42.93
2022-08-17T15:54:18.870Z,42.98
2022-08-17T15:59:25.045Z,42.90
2022-08-17T16:04:30.729Z,42.79
2022-08-17T16:09:36.483Z,42.22
2022-08-17T16:14:39.231Z,41.42
2022-08-17T16:19:42.500Z,41.30
2022-08-17T16:24:57.352Z,39.92
2022-08-17T16:30:00.350Z,40.04
2022-08-17T16:35:17.844Z,38.95
2022-08-17T16:40:20.730Z,37.71
2022-08-17T16:45:29.566Z,37.40
2022-08-17T16:50:33.224Z,36.18
2022-08-17T16:55:36.304Z,36.44
2022-08-17T17:00:39.658Z,35.17
2022-08-17T17:05:42.182Z,35.60
2022-08-17T17:10:48.856Z,34.82
2022-08-17T17:16:15.198Z,34.71
2022-08-17T17:21:25.285Z,34.59
2022-08-17T17:26:45.879Z,34.39
2022-08-17T17:32:09.511Z,33.84
2022-08-17T17:37:21.125Z,32.69
2022-08-17T17:42:31.900Z,32.82
2022-08-17T17:47:34.954Z,32.56
2022-08-17T17:52:46.924Z,33.41
2022-08-17T17:58:14.011Z,32.97
2022-08-17T18:03:55.371Z,32.70
2022-08-17T18:09:12.664Z,32.88
2022-08-17T18:14:47.920Z,32.60
2022-08-17T18:19:50.339Z,32.34
2022-08-17T18:24:56.914Z,32.37
2022-08-17T18:30:05.887Z,31.96
2022-08-17T18:35:14.831Z,32.27
2022-08-17T18:40:17.403Z,32.28
2022-08-17T18:45:49.223Z,31.95
2022-08-17T18:50:53.753Z,31.65
2022-08-17T18:56:22.225Z,31.60
2022-08-17T19:01:47.193Z,31.36
2022-08-17T19:06:47.202Z,30.76
2022-08-17T19:11:49.758Z,30.89
2022-08-17T19:16:58.492Z,30.89
2022-08-17T19:22:17.023Z,30.92
2022-08-17T19:27:51.349Z,30.62
2022-08-17T19:33:02.555Z,30.39
2022-08-17T19:38:15.324Z,30.50
2022-08-17T19:43:39.386Z,30.40
2022-08-17T19:49:00.756Z,30.32
2022-08-17T19:54:26.215Z,30.30
2022-08-17T19:59:49.932Z,30.27
2022-08-17T20:04:56.943Z,29.89
2022-08-17T20:10:08.417Z,29.97
2022-08-17T20:15:33.578Z,29.81
2022-08-17T20:20:41.863Z,29.78
2022-08-17T20:25:48.727Z,29.80
2022-08-17T20:30:52.388Z,29.72
2022-08-17T20:36:18.510Z,29.70
2022-08-17T20:41:24.909Z,29.70
2022-08-17T20:46:39.463Z,29.66
2022-08-17T20:52:14.200Z,29.59
2022-08-17T20:57:32.088Z,29.47
2022-08-17T21:02:34.624Z,29.33
2022-08-17T21:07:43.592Z,29.30
2022-08-17T21:12:57.014Z,28.79
2022-08-17T21:18:23.866Z,29.13
2022-08-17T21:24:01.331Z,29.04
2022-08-17T21:29:31.548Z,28.97
2022-08-17T21:34:38.310Z,29.05
2022-08-17T21:39:42.123Z,29.00
2022-08-17T21:44:51.336Z,28.67
2022-08-17T21:49:56.308Z,28.60
2022-08-17T21:55:02.990Z,28.50
2022-08-17T22:00:17.658Z,28.02
2022-08-17T22:05:33.003Z,28.29
2022-08-17T22:10:44.235Z,28.42
2022-08-17T22:15:50.449Z,28.25
2022-08-17T22:21:03.622Z,28.16
2022-08-17T22:26:12.580Z,28.16
2022-08-17T22:31:22.710Z,27.77
2022-08-17T22:36:29.095Z,28.10
2022-08-17T22:41:42.030Z,27.42
2022-08-17T22:46:59.671Z,27.39
2022-08-17T22:52:06.767Z,27.75
2022-08-17T22:57:33.963Z,27.46
2022-08-17T23:02:51.136Z,27.70
2022-08-17T23:07:57.915Z,27.91
2022-08-17T23:13:01.861Z,27.77
2022-08-17T23:18:05.440Z,27.76
2022-08-17T23:23:09.497Z,27.17
2022-08-17T23:28:12.279Z,27.52
2022-08-17T23:33:30.534Z,27.08
2022-08-17T23:38:35.847Z,27.36
2022-08-17T23:43:40.203Z,27.47
2022-08-17T23:48:42.826Z,27.61
2022-08-17T23:53:50.679Z,26.48
2022-08-17T23:58:55.394Z,26.54
